Rockland, ME

6:03 PM EDT on April 26, 2017 (GMT -0400)
Knox County Regional

Weather History for KRKD - February, 2013

Change the Weather History Date:

Monday, February 25, 2013

  Actual Average Record
Temperature  
Mean Temperature 28 °F -  
Max Temperature 37 °F 33 °F 53 °F (2016)
Min Temperature 19 °F 19 °F 1 °F (2001)
Degree Days  
Heating Degree Days 37    
Moisture  
Dew Point 17 °F    
Average Humidity 65    
Maximum Humidity 100    
Minimum Humidity 38    
Precipitation  
Precipitation 0.15 in - - ()
Sea Level Pressure  
Sea Level Pressure 30.07 in    
Wind  
Wind Speed 6 mph (North)    
Max Wind Speed 10 mph    
Max Gust Speed 20 mph    
Visibility 10 miles    
Events      
Averages and records for this station are not official NWS values.
T = Trace of Precipitation, MM = Missing Value Source: NWS Daily Summary

Daily Weather History Graph

Daily Weather History Graph

Search for Another Location

Airport or City:

Trip Planner

Search our weather history database for the weather conditions in past years. The results will help you decide how hot, cold, wet, or windy it might be!

Date:

Astronomy

Feb. 25, 2013 Rise Set
Actual Time 6:19 AM EST 5:19 PM EST
Civil Twilight 5:50 AM EST 5:48 PM EST
Nautical Twilight 5:17 AM EST 6:22 PM EST
Astronomical Twilight 4:43 AM EST 6:55 PM EST
Moon 5:31 PM EST (2/25) 5:46 AM EST (2/25)
Length of Visible Light 11h 58m
Length of Day
11h 00m
Full, 100% of the Moon is Illuminated
Feb 25
Full
Feb 25
Full
Mar 4
Last Quarter
Mar 11
New
Mar 19
First Quarter

Hourly Weather History & Observations

Time (EST) Temp. Windchill Dew Point Humidity Pressure Visibility Wind Dir Wind Speed Gust Speed Precip Events Conditions
12:15 AM 28.4 °F 22.2 °F 23.0 °F 80% 29.87 in 10.0 mi North 5.8 mph - N/A   Clear
12:35 AM 28.4 °F 22.2 °F 21.2 °F 74% 29.88 in 10.0 mi North 5.8 mph - N/A   Clear
1:15 AM 28.4 °F 22.2 °F 21.2 °F 74% 29.89 in 10.0 mi North 5.8 mph - N/A   Clear
1:35 AM 28.4 °F 22.2 °F 21.2 °F 74% 29.90 in 10.0 mi North 5.8 mph - N/A   Clear
1:55 AM 26.6 °F 20.0 °F 21.2 °F 80% 29.90 in 10.0 mi NNW 5.8 mph - N/A   Clear
2:15 AM 26.6 °F 20.0 °F 19.4 °F 74% 29.89 in 10.0 mi North 5.8 mph - N/A   Clear
2:35 AM 26.6 °F 21.2 °F 19.4 °F 74% 29.89 in 10.0 mi NNW 4.6 mph - N/A   Clear
2:55 AM 26.6 °F 21.2 °F 19.4 °F 74% 29.89 in 10.0 mi NNW 4.6 mph - N/A   Clear
3:15 AM 26.6 °F 20.0 °F 17.6 °F 69% 29.90 in 10.0 mi North 5.8 mph - N/A   Clear
3:35 AM 26.6 °F 18.2 °F 17.6 °F 69% 29.91 in 10.0 mi North 8.1 mph - N/A   Clear
3:55 AM 26.6 °F 21.2 °F 15.8 °F 64% 29.92 in 10.0 mi North 4.6 mph - N/A   Clear
4:15 AM 26.6 °F 19.1 °F 15.8 °F 64% 29.93 in 10.0 mi North 6.9 mph 18.4 mph N/A   Clear
4:35 AM 26.6 °F 21.2 °F 15.8 °F 64% 29.94 in 10.0 mi North 4.6 mph - N/A   Clear
4:55 AM 26.6 °F 19.1 °F 14.0 °F 59% 29.95 in 10.0 mi North 6.9 mph - N/A   Clear
5:15 AM 26.6 °F 21.2 °F 14.0 °F 59% 29.96 in 10.0 mi NNW 4.6 mph - N/A   Clear
5:35 AM 26.6 °F 21.2 °F 15.8 °F 64% 29.97 in 10.0 mi North 4.6 mph - N/A   Clear
5:55 AM 26.6 °F 19.1 °F 15.8 °F 64% 29.97 in 10.0 mi North 6.9 mph - N/A   Clear
6:15 AM 26.6 °F 16.8 °F 12.2 °F 55% 29.98 in 10.0 mi NNE 10.4 mph 18.4 mph N/A   Clear
6:35 AM 26.6 °F 17.5 °F 12.2 °F 55% 29.99 in 10.0 mi North 9.2 mph - N/A   Clear
6:55 AM 26.6 °F 17.5 °F 14.0 °F 59% 30.01 in 10.0 mi North 9.2 mph 17.3 mph N/A   Clear
7:15 AM 26.6 °F 18.2 °F 15.8 °F 64% 30.02 in 10.0 mi North 8.1 mph - N/A   Clear
7:35 AM 26.6 °F 17.5 °F 17.6 °F 69% 30.02 in 10.0 mi NNE 9.2 mph - N/A   Clear
7:55 AM 26.6 °F 18.2 °F 17.6 °F 69% 30.03 in 10.0 mi North 8.1 mph 16.1 mph N/A   Clear
8:15 AM 26.6 °F 19.1 °F 15.8 °F 64% 30.04 in 10.0 mi North 6.9 mph 17.3 mph N/A   Clear
8:35 AM 26.6 °F 17.5 °F 15.8 °F 64% 30.03 in 10.0 mi NNE 9.2 mph 16.1 mph N/A   Clear
8:55 AM 28.4 °F 19.7 °F 15.8 °F 59% 30.03 in 10.0 mi NNE 9.2 mph 19.6 mph N/A   Clear
9:15 AM 28.4 °F 19.7 °F 17.6 °F 64% 30.04 in 10.0 mi North 9.2 mph 18.4 mph N/A   Clear
9:35 AM 28.4 °F 20.4 °F 15.8 °F 59% 30.05 in 10.0 mi NNE 8.1 mph 17.3 mph N/A   Clear
9:55 AM 30.2 °F 21.9 °F 17.6 °F 60% 30.06 in 10.0 mi NNE 9.2 mph 16.1 mph N/A   Clear
10:15 AM 30.2 °F 24.3 °F 12.2 °F 47% 30.06 in 10.0 mi North 5.8 mph - N/A   Clear
10:35 AM 30.2 °F 22.6 °F 15.8 °F 55% 30.06 in 10.0 mi NNE 8.1 mph - N/A   Clear
10:55 AM 32.0 °F 25.6 °F 17.6 °F 55% 30.07 in 10.0 mi NNE 6.9 mph - N/A   Clear
11:15 AM 32.0 °F 25.6 °F 17.6 °F 55% 30.07 in 10.0 mi NNE 6.9 mph - N/A   Clear
11:35 AM 33.8 °F 28.6 °F 15.8 °F 48% 30.07 in 10.0 mi North 5.8 mph - N/A   Clear
11:55 AM 33.8 °F 25.8 °F 14.0 °F 44% 30.07 in 10.0 mi NNE 10.4 mph - N/A   Clear
12:15 PM 33.8 °F 29.6 °F 14.0 °F 44% 30.07 in 10.0 mi NNE 4.6 mph - N/A   Clear
12:35 PM 33.8 °F 27.7 °F 14.0 °F 44% 30.08 in 10.0 mi NNE 6.9 mph - N/A   Clear
12:55 PM 35.6 °F 29.9 °F 14.0 °F 41% 30.09 in 10.0 mi NNE 6.9 mph - 0.03 in   Clear
1:15 PM 35.6 °F 28.6 °F 12.2 °F 38% 30.09 in 10.0 mi NE 9.2 mph - 0.04 in   Clear
1:35 PM 35.6 °F 29.2 °F 12.2 °F 38% 30.09 in 10.0 mi NNE 8.1 mph - 0.06 in   Clear
1:55 PM 35.6 °F 31.7 °F 12.2 °F 38% 30.09 in 10.0 mi NNE 4.6 mph - 0.07 in   Clear
2:15 PM 35.6 °F 29.9 °F 15.8 °F 44% 30.09 in 10.0 mi NE 6.9 mph - 0.02 in   Clear
2:35 PM 35.6 °F 30.7 °F 12.2 °F 38% 30.10 in 10.0 mi NE 5.8 mph - 0.03 in   Clear
2:55 PM 35.6 °F 30.7 °F 15.8 °F 44% 30.10 in 10.0 mi NE 5.8 mph - 0.04 in   Clear
3:15 PM 35.6 °F 31.7 °F 14.0 °F 41% 30.11 in 10.0 mi NNE 4.6 mph - N/A   Partly Cloudy
3:35 PM 35.6 °F 32.8 °F 14.0 °F 41% 30.12 in 10.0 mi NE 3.5 mph - N/A   Partly Cloudy
3:55 PM 35.6 °F 31.7 °F 15.8 °F 44% 30.13 in 10.0 mi NE 4.6 mph - 0.01 in   Partly Cloudy
4:15 PM 37.4 °F - 15.8 °F 41% 30.14 in 10.0 mi Calm Calm - N/A   Partly Cloudy
4:35 PM 37.4 °F - 15.8 °F 41% 30.15 in 10.0 mi Calm Calm - N/A   Partly Cloudy
5:15 PM 33.8 °F - 17.6 °F 52% 30.16 in 10.0 mi Calm Calm - N/A   Scattered Clouds
5:35 PM 30.2 °F - 19.4 °F 64% 30.17 in 10.0 mi Calm Calm - N/A   Scattered Clouds
5:55 PM 30.2 °F - 21.2 °F 69% 30.17 in 10.0 mi Calm Calm - N/A   Clear
6:15 PM 26.6 °F - 21.2 °F 80% 30.17 in 10.0 mi Calm Calm - N/A   Clear
6:55 PM 26.6 °F - 21.2 °F 80% 30.18 in 10.0 mi Calm Calm - N/A   Clear
7:15 PM 24.8 °F - 21.2 °F 86% 30.18 in 10.0 mi Calm Calm - N/A   Clear
7:35 PM 24.8 °F - 21.2 °F 86% 30.19 in 10.0 mi Calm Calm - N/A   Clear
7:55 PM 24.8 °F - 21.2 °F 86% 30.18 in 10.0 mi Calm Calm - N/A   Clear
8:15 PM 23.0 °F - 21.2 °F 93% 30.18 in 10.0 mi Calm Calm - N/A   Clear
8:35 PM 21.2 °F - 19.4 °F 93% 30.19 in 10.0 mi Calm Calm - N/A   Clear
8:55 PM 21.2 °F 14.9 °F 21.2 °F 100% 30.20 in 10.0 mi WNW 4.6 mph - N/A   Clear
9:15 PM 23.0 °F 17.0 °F 21.2 °F 93% 30.21 in 10.0 mi West 4.6 mph - N/A   Clear
9:35 PM 23.0 °F 17.0 °F 19.4 °F 86% 30.21 in 10.0 mi WNW 4.6 mph - N/A   Clear
9:55 PM 23.0 °F 14.7 °F 19.4 °F 86% 30.21 in 10.0 mi West 6.9 mph - N/A   Clear
10:15 PM 24.8 °F 19.1 °F 19.4 °F 80% 30.21 in 10.0 mi WNW 4.6 mph - N/A   Clear
10:35 PM 19.4 °F 12.8 °F 15.8 °F 86% 30.22 in 10.0 mi West 4.6 mph - N/A   Clear
10:55 PM 21.2 °F 14.9 °F 19.4 °F 93% 30.22 in 10.0 mi West 4.6 mph - N/A   Clear
11:15 PM 21.2 °F 14.9 °F 19.4 °F 93% 30.22 in 10.0 mi WNW 4.6 mph - N/A   Clear
11:35 PM 21.2 °F 14.9 °F 19.4 °F 93% 30.22 in 10.0 mi West 4.6 mph - N/A   Mostly Cloudy
11:55 PM 23.0 °F 18.4 °F 21.2 °F 93% 30.23 in 10.0 mi West 3.5 mph - N/A   Overcast